X  Stänga Metar väderdata för luftfart     ESNL Lycksele Airport
Temperatur
-5°C Temperatur
-6°C Daggpunkt
93% Fuktighet



Vind
1 M/S
2 MPH
3 KM/T
2 KTS



310°
NV
Nuvarande omständigheter

Molnigt Molnigt
Tryck 1035.92 (hPa) - 30.59 (inHg)
Synlighet 3.7 (mil) - 6 (km)
Flygplats
Flygplatskod ESNL

Plats: Lycksele Airport
Distans: 35 (km)

Metar:
ESNL 031450Z AUTO 31002KT 6000 OVC008/// M05/M06 Q1036

Tid: 2022-12-03 15:50 CET